Time;durP1;ratioP1;P1;durP2;ratioP2;P2;SDS_P1;SDS_P2;PMS_P1;PMS_P2;Temp;Humidity;BMP_temperature;BMP_pressure;BME280_temperature;BME280_humidity;BME280_pressure;Samples;Min_cycle;Max_cycle;Signal;HPM_P1;HPM_P2
2021/04/04 00:01:10;;;;;;;9.70;2.40;;;;;;;5.59;37.58;102259.69;7929186;28;20091;-64
2021/04/04 00:05:01;;;;;;;8.88;2.40;;;;;;;5.55;37.72;102262.41;7929175;28;20045;-64
2021/04/04 00:08:52;;;;;;;5.43;2.38;;;;;;;5.51;37.68;102259.00;7928393;28;20041;-64
2021/04/04 00:12:42;;;;;;;8.63;2.67;;;;;;;5.47;37.92;102256.50;7935587;28;20080;-64
2021/04/04 00:16:33;;;;;;;9.95;2.70;;;;;;;5.42;37.93;102261.81;7930704;28;20532;-64
2021/04/04 00:20:23;;;;;;;13.73;3.00;;;;;;;5.38;37.83;102262.78;7928061;28;20726;-64
2021/04/04 00:24:14;;;;;;;6.30;2.65;;;;;;;5.34;37.85;102263.75;7928479;28;20030;-64
2021/04/04 00:28:05;;;;;;;10.68;2.90;;;;;;;5.30;37.95;102256.03;7927494;28;20030;-64
2021/04/04 00:31:56;;;;;;;9.25;2.70;;;;;;;5.27;38.21;102256.09;7928537;28;20037;-64
2021/04/04 00:35:47;;;;;;;9.65;2.28;;;;;;;5.22;38.04;102250.13;7928287;28;20038;-64
2021/04/04 00:39:38;;;;;;;11.80;2.28;;;;;;;5.18;38.03;102257.16;7927747;28;20037;-64
2021/04/04 00:43:28;;;;;;;10.52;2.38;;;;;;;5.13;38.23;102256.38;7927263;28;20060;-64
2021/04/04 00:47:19;;;;;;;9.40;2.63;;;;;;;5.09;38.25;102262.53;7927541;28;20045;-64
2021/04/04 00:51:10;;;;;;;7.25;2.22;;;;;;;5.03;38.19;102254.84;7927128;28;20148;-64
2021/04/04 00:55:01;;;;;;;12.27;3.35;;;;;;;4.97;38.21;102253.22;7925954;28;20486;-64
2021/04/04 00:58:52;;;;;;;7.75;2.28;;;;;;;4.95;38.02;102248.94;7923616;28;20070;-64
2021/04/04 01:02:43;;;;;;;6.28;2.22;;;;;;;4.91;38.13;102252.47;7929037;28;20042;-64
2021/04/04 01:06:34;;;;;;;10.65;2.78;;;;;;;4.87;38.28;102253.44;7927672;28;20151;-64
2021/04/04 01:10:29;;;;;;;6.82;1.92;;;;;;;4.82;38.34;102248.31;7930210;28;20452;-65
2021/04/04 01:14:31;;;;;;;6.07;2.30;;;;;;;4.79;38.46;102247.53;7928657;28;20057;-64
2021/04/04 01:18:34;;;;;;;8.65;2.15;;;;;;;4.72;38.64;102247.66;7928296;28;20140;-64
2021/04/04 01:22:57;;;;;;;7.28;2.30;;;;;;;4.69;38.54;102252.06;7928036;28;20050;-64
2021/04/04 01:27:07;;;;;;;9.20;2.35;;;;;;;4.69;38.54;102258.13;7902493;28;20049;-64
2021/04/04 01:30:58;;;;;;;7.03;2.28;;;;;;;4.63;38.43;102249.59;7926627;28;20517;-65
2021/04/04 01:34:49;;;;;;;5.57;2.25;;;;;;;4.66;38.79;102252.13;7927765;28;20449;-64
2021/04/04 01:38:43;;;;;;;13.35;3.03;;;;;;;4.66;38.66;102258.19;7929770;28;20030;-65
2021/04/04 01:42:37;;;;;;;9.10;2.92;;;;;;;4.65;38.91;102253.84;7927385;28;20045;-64
2021/04/04 01:46:28;;;;;;;9.38;2.10;;;;;;;4.61;38.93;102246.13;7927447;28;20095;-65
2021/04/04 01:50:20;;;;;;;5.53;2.50;;;;;;;4.66;39.13;102255.59;7928085;28;20061;-64
2021/04/04 01:54:12;;;;;;;9.68;2.67;;;;;;;4.64;38.92;102252.16;7925838;28;20034;-65
2021/04/04 01:58:08;;;;;;;10.77;2.88;;;;;;;4.62;39.07;102253.06;7927091;28;20050;-64
2021/04/04 02:02:00;;;;;;;9.40;2.60;;;;;;;4.64;39.08;102249.56;7932539;28;20049;-64
2021/04/04 02:05:53;;;;;;;7.63;2.50;;;;;;;4.64;39.19;102241.75;7926222;28;20038;-64
2021/04/04 02:09:46;;;;;;;9.95;3.08;;;;;;;4.76;39.48;102245.00;7929040;28;20035;-64
2021/04/04 02:13:38;;;;;;;8.20;2.10;;;;;;;4.82;39.34;102250.06;7933828;28;20627;-64
2021/04/04 02:17:30;;;;;;;15.00;3.63;;;;;;;4.85;39.37;102237.88;7933624;28;20470;-64
2021/04/04 02:21:21;;;;;;;7.88;2.53;;;;;;;4.91;39.59;102236.84;7927540;28;20120;-65
2021/04/04 02:25:15;;;;;;;14.80;3.17;;;;;;;4.95;39.47;102235.91;7931932;28;20044;-64
2021/04/04 02:29:05;;;;;;;11.30;2.20;;;;;;;4.99;39.52;102233.22;7930757;28;20062;-64
2021/04/04 02:33:05;;;;;;;11.70;2.70;;;;;;;5.04;39.80;102233.09;7928218;28;20320;-64
2021/04/04 02:36:56;;;;;;;10.38;2.78;;;;;;;5.07;39.71;102241.72;7931549;28;20042;-64
2021/04/04 02:40:49;;;;;;;12.20;3.00;;;;;;;5.09;39.73;102231.28;7933275;28;20142;-64
2021/04/04 02:44:40;;;;;;;7.70;2.28;;;;;;;5.10;39.66;102236.44;7932223;28;20093;-65
2021/04/04 02:48:34;;;;;;;8.52;2.80;;;;;;;5.13;39.98;102225.09;7932152;28;20140;-64
2021/04/04 02:52:28;;;;;;;10.02;2.63;;;;;;;5.16;39.73;102227.66;7927029;28;20376;-65
2021/04/04 02:56:21;;;;;;;11.32;2.28;;;;;;;5.13;39.88;102222.50;7930710;28;20034;-64
2021/04/04 03:00:16;;;;;;;7.50;2.67;;;;;;;5.18;39.79;102237.19;7934488;28;20036;-64
2021/04/04 03:04:08;;;;;;;8.63;3.00;;;;;;;5.19;40.09;102231.06;7931533;28;20038;-64
2021/04/04 03:08:06;;;;;;;11.00;3.55;;;;;;;5.22;40.00;102231.91;7934090;28;20076;-65
2021/04/04 03:11:58;;;;;;;10.30;3.53;;;;;;;5.21;40.03;102238.00;7931397;28;20642;-64
2021/04/04 03:15:50;;;;;;;11.43;2.10;;;;;;;5.21;39.99;102228.44;7931365;28;20036;-64
2021/04/04 03:19:43;;;;;;;13.07;2.33;;;;;;;5.17;40.12;102221.56;7931145;28;20030;-65
2021/04/04 03:23:35;;;;;;;8.88;2.47;;;;;;;5.21;40.07;102227.56;7931182;28;20038;-65
2021/04/04 03:27:27;;;;;;;8.65;2.88;;;;;;;5.22;40.11;102230.16;7931400;28;20129;-65
2021/04/04 03:31:18;;;;;;;9.38;2.17;;;;;;;5.22;40.18;102221.47;7926010;28;20449;-64
2021/04/04 03:35:09;;;;;;;7.47;2.22;;;;;;;5.23;40.01;102228.41;7929813;28;20063;-64
2021/04/04 03:39:01;;;;;;;11.60;2.92;;;;;;;5.21;40.01;102217.16;7930600;28;20125;-64
2021/04/04 03:42:53;;;;;;;8.75;2.65;;;;;;;5.21;40.29;102220.63;7933768;28;20125;-64
2021/04/04 03:46:46;;;;;;;8.38;2.33;;;;;;;5.25;40.02;102214.44;7928589;28;20049;-64
2021/04/04 03:50:38;;;;;;;5.00;2.17;;;;;;;5.25;40.60;102214.44;7929529;28;20047;-65
2021/04/04 03:54:30;;;;;;;6.82;2.80;;;;;;;5.26;40.24;102215.31;7929206;28;20034;-64
2021/04/04 03:58:24;;;;;;;14.20;2.33;;;;;;;5.26;40.35;102207.47;7928486;28;20042;-65
2021/04/04 04:02:15;;;;;;;9.90;2.60;;;;;;;5.25;40.47;102197.94;7924416;28;20038;-65
2021/04/04 04:06:08;;;;;;;9.60;2.55;;;;;;;5.26;40.45;102194.47;7927923;28;20030;-65
2021/04/04 04:10:01;;;;;;;16.85;2.60;;;;;;;5.26;40.41;102189.25;7924079;28;20031;-65
2021/04/04 04:13:53;;;;;;;12.18;2.90;;;;;;;5.27;40.57;102183.97;7929877;28;20069;-65
2021/04/04 04:17:46;;;;;;;9.82;3.25;;;;;;;5.23;40.48;102174.53;7929623;28;20060;-65
2021/04/04 04:21:40;;;;;;;9.15;1.98;;;;;;;5.27;40.49;102183.16;7922020;28;20491;-65
2021/04/04 04:25:32;;;;;;;7.45;2.20;;;;;;;5.27;40.50;102181.38;7924282;28;20041;-65
2021/04/04 04:29:23;;;;;;;11.15;2.70;;;;;;;5.27;40.46;102181.38;7926897;28;20054;-65
2021/04/04 04:33:19;;;;;;;10.02;2.60;;;;;;;5.27;40.49;102172.72;7927508;28;20446;-65
2021/04/04 04:37:12;;;;;;;12.30;2.22;;;;;;;5.27;40.49;102170.13;7933404;28;20384;-65
2021/04/04 04:41:03;;;;;;;10.43;2.67;;;;;;;5.26;40.49;102155.38;7928252;28;20534;-65
2021/04/04 04:44:55;;;;;;;11.13;2.47;;;;;;;5.26;40.59;102168.41;7927656;28;20029;-65
2021/04/04 04:48:46;;;;;;;10.45;2.30;;;;;;;5.23;40.41;102161.50;7927134;28;20037;-65
2021/04/04 04:52:36;;;;;;;10.38;2.53;;;;;;;5.19;40.62;102158.13;7927385;28;20037;-65
2021/04/04 04:56:28;;;;;;;6.05;2.60;;;;;;;5.25;40.52;102161.47;7927331;28;20039;-65
2021/04/04 05:00:21;;;;;;;8.80;2.17;;;;;;;5.20;40.44;102156.38;7926678;28;20084;-65
2021/04/04 05:04:13;;;;;;;9.40;2.20;;;;;;;5.18;40.34;102152.97;7928428;28;20037;-64
2021/04/04 05:08:04;;;;;;;9.80;2.05;;;;;;;5.24;40.57;102164.97;7922919;28;20038;-64
2021/04/04 05:11:56;;;;;;;7.82;1.95;;;;;;;5.24;40.58;102170.16;7928405;28;20038;-64
2021/04/04 05:15:49;;;;;;;10.80;2.22;;;;;;;5.24;40.68;102172.78;7926464;28;20042;-64
2021/04/04 05:19:40;;;;;;;8.60;2.00;;;;;;;5.24;40.82;102173.63;7927092;28;20213;-64
2021/04/04 05:23:31;;;;;;;13.25;2.60;;;;;;;5.21;40.60;102168.50;7927003;28;20749;-64
2021/04/04 05:27:22;;;;;;;11.73;2.60;;;;;;;5.22;40.64;102170.22;7927384;28;20084;-64
2021/04/04 05:31:12;;;;;;;24.83;4.18;;;;;;;5.26;40.71;102179.69;7926445;28;20554;-64
2021/04/04 05:35:12;;;;;;;9.60;2.92;;;;;;;5.26;40.74;102174.47;7927660;28;20134;-64
2021/04/04 05:39:03;;;;;;;8.77;2.40;;;;;;;5.21;40.57;102162.44;7927139;28;20186;-64
2021/04/04 05:42:59;;;;;;;5.65;2.40;;;;;;;5.30;40.88;102170.91;7930890;28;20581;-64
2021/04/04 05:46:56;;;;;;;8.63;2.30;;;;;;;5.30;40.72;102168.31;7933009;28;20046;-64
2021/04/04 05:51:12;;;;;;;14.05;3.53;;;;;;;5.29;40.77;102171.78;7932430;28;20037;-64
2021/04/04 05:55:06;;;;;;;9.88;3.13;;;;;;;5.34;40.82;102182.97;7936543;28;20628;-64
2021/04/04 05:59:04;;;;;;;8.52;2.33;;;;;;;5.36;40.82;102185.53;7931881;28;20052;-64
2021/04/04 06:03:15;;;;;;;7.10;1.75;;;;;;;5.37;40.78;102176.81;7928033;28;20088;-64
2021/04/04 06:07:43;;;;;;;5.50;1.70;;;;;;;5.38;40.98;102176.78;7931387;28;20050;-64
2021/04/04 06:11:46;;;;;;;10.35;2.55;;;;;;;5.41;40.91;102175.84;7933447;28;20165;-65
2021/04/04 06:15:48;;;;;;;6.13;1.80;;;;;;;5.42;40.82;102165.41;7927243;28;20078;-64
2021/04/04 06:19:45;;;;;;;6.32;1.88;;;;;;;5.41;40.89;102157.59;7928899;28;20048;-64
2021/04/04 06:23:54;;;;;;;13.98;2.10;;;;;;;5.47;40.77;102160.94;7934279;28;20035;-64
2021/04/04 06:28:02;;;;;;;8.30;1.85;;;;;;;5.51;40.93;102166.94;7932676;28;20121;-64
2021/04/04 06:32:06;;;;;;;5.97;2.07;;;;;;;5.52;40.69;102168.63;7931920;28;20047;-64
2021/04/04 06:36:03;;;;;;;5.25;1.83;;;;;;;5.55;40.80;102163.34;7935860;28;20038;-64
2021/04/04 06:40:04;;;;;;;10.65;2.10;;;;;;;5.59;41.11;102170.19;7931152;28;20048;-64
2021/04/04 06:44:20;;;;;;;7.70;2.20;;;;;;;5.60;40.76;102170.13;7926953;28;20372;-65
2021/04/04 06:48:19;;;;;;;7.80;2.38;;;;;;;5.63;40.80;102170.09;7926702;28;20376;-65
2021/04/04 06:52:30;;;;;;;7.35;2.03;;;;;;;5.67;40.73;102168.25;7938040;28;20046;-65
2021/04/04 06:56:34;;;;;;;8.27;1.83;;;;;;;5.69;41.15;102163.84;7926081;28;20030;-65
2021/04/04 07:00:53;;;;;;;7.25;2.00;;;;;;;5.69;40.80;102165.59;7930524;28;20042;-64
2021/04/04 07:04:47;;;;;;;5.45;1.50;;;;;;;5.73;40.67;102169.84;7931631;28;20054;-65
2021/04/04 07:08:56;;;;;;;5.65;2.35;;;;;;;5.75;40.94;102173.28;7929809;28;20045;-64
2021/04/04 07:13:25;;;;;;;14.15;3.35;;;;;;;5.74;40.87;102188.06;7930299;28;20045;-64
2021/04/04 07:17:52;;;;;;;4.75;1.60;;;;;;;5.74;40.98;102182.84;7928287;28;20049;-65
2021/04/04 07:21:56;;;;;;;4.35;2.17;;;;;;;5.75;40.98;102176.75;7935684;28;20044;-64
2021/04/04 07:26:20;;;;;;;4.25;1.50;;;;;;;5.77;40.89;102172.31;7936416;28;20038;-65
2021/04/04 07:30:29;;;;;;;3.38;1.63;;;;;;;5.79;40.73;102173.16;7929024;28;20144;-66
2021/04/04 07:34:27;;;;;;;7.05;1.60;;;;;;;5.82;41.10;102169.59;7931273;28;20531;-67
2021/04/04 07:38:27;;;;;;;7.90;1.67;;;;;;;5.83;41.13;102161.75;7941788;28;20068;-67
2021/04/04 07:42:24;;;;;;;10.00;1.98;;;;;;;5.86;40.88;102166.03;7930580;28;20037;-68
2021/04/04 07:46:56;;;;;;;6.97;2.08;;;;;;;5.89;41.04;102161.56;7924341;28;20124;-65
2021/04/04 07:50:51;;;;;;;8.98;2.45;;;;;;;5.94;40.84;102164.94;7815926;29;20165;-65
2021/04/04 07:54:55;;;;;;;5.63;1.75;;;;;;;5.99;41.27;102163.06;7866190;28;20057;-65
2021/04/04 07:59:23;;;;;;;6.05;2.00;;;;;;;6.02;41.14;102157.75;7912005;28;20042;-64
2021/04/04 08:03:19;;;;;;;4.95;1.95;;;;;;;6.07;41.21;102155.03;7909736;28;20045;-64
2021/04/04 08:07:19;;;;;;;5.40;1.73;;;;;;;6.08;40.89;102157.59;7919418;28;20073;-64
2021/04/04 08:11:25;;;;;;;5.57;2.38;;;;;;;6.11;41.22;102154.03;7908138;28;20538;-64
2021/04/04 08:15:21;;;;;;;4.15;1.90;;;;;;;6.16;41.08;102164.34;7909218;28;20038;-64
2021/04/04 08:19:14;;;;;;;6.70;1.42;;;;;;;6.17;41.20;102166.94;7912419;28;20518;-64
2021/04/04 08:23:06;;;;;;;8.18;1.60;;;;;;;6.18;41.32;102176.44;7904100;28;20046;-64
2021/04/04 08:27:02;;;;;;;5.07;1.77;;;;;;;6.20;40.90;102168.59;7911107;28;20116;-64
2021/04/04 08:30:57;;;;;;;4.05;1.63;;;;;;;6.17;41.02;102166.94;7906992;28;20054;-64
2021/04/04 08:34:54;;;;;;;10.65;2.63;;;;;;;6.22;40.91;102165.06;7912254;28;20454;-64
2021/04/04 08:38:48;;;;;;;3.67;1.30;;;;;;;6.29;40.86;102166.59;7913270;28;20100;-64
2021/04/04 08:42:41;;;;;;;5.15;1.98;;;;;;;6.31;41.25;102174.38;7906623;28;20537;-64
2021/04/04 08:46:44;;;;;;;5.65;2.17;;;;;;;6.35;40.90;102169.03;7905278;28;20049;-64
2021/04/04 08:50:42;;;;;;;4.85;1.70;;;;;;;6.40;40.95;102174.13;7916671;28;20046;-65
2021/04/04 08:54:34;;;;;;;2.85;1.58;;;;;;;6.42;41.21;102178.41;7903535;28;20451;-64
2021/04/04 08:58:37;;;;;;;6.00;1.58;;;;;;;6.44;40.90;102181.81;7910330;28;20146;-64
2021/04/04 09:02:32;;;;;;;6.97;2.20;;;;;;;6.45;41.27;102183.53;7908558;28;20131;-64
2021/04/04 09:06:23;;;;;;;9.13;2.88;;;;;;;6.43;41.42;102166.19;7908081;28;20532;-64
2021/04/04 09:10:16;;;;;;;8.50;2.13;;;;;;;6.53;41.35;102178.09;7912202;28;20042;-64
2021/04/04 09:14:07;;;;;;;7.97;2.30;;;;;;;6.57;41.11;102179.72;7905637;28;20084;-64
2021/04/04 09:17:58;;;;;;;4.43;1.77;;;;;;;6.58;41.33;102165.78;7913575;28;20042;-64
2021/04/04 09:21:49;;;;;;;6.00;1.50;;;;;;;6.65;41.29;102175.13;7906999;28;20036;-64
2021/04/04 09:26:01;;;;;;;4.28;1.73;;;;;;;6.68;41.27;102168.97;7908789;28;20038;-64
2021/04/04 09:29:56;;;;;;;3.42;1.80;;;;;;;6.70;41.07;102164.56;7906591;28;20046;-64
2021/04/04 09:34:01;;;;;;;4.47;2.13;;;;;;;6.76;41.40;102169.66;7907541;28;20071;-64
2021/04/04 09:37:59;;;;;;;6.10;1.83;;;;;;;6.81;40.94;102165.13;7915580;28;20108;-64
2021/04/04 09:41:50;;;;;;;3.83;1.15;;;;;;;6.86;41.25;102156.25;7903694;28;20046;-64
2021/04/04 09:45:42;;;;;;;5.72;1.60;;;;;;;6.94;40.94;102162.09;7900549;28;20727;-65
2021/04/04 09:49:40;;;;;;;5.97;1.50;;;;;;;7.00;41.05;102161.94;7905900;28;20042;-64
2021/04/04 09:53:43;;;;;;;6.95;1.85;;;;;;;7.03;41.00;102161.81;7908135;28;20457;-64
2021/04/04 09:57:41;;;;;;;2.25;1.30;;;;;;;7.06;41.01;102153.03;7927811;28;20088;-64
2021/04/04 10:01:41;;;;;;;;;;;;;;;7.03;41.22;102155.75;7911727;28;20046;-64
2021/04/04 10:05:37;;;;;;;9.23;2.15;;;;;;;7.11;41.13;102145.91;7907996;28;20028;-64
2021/04/04 10:09:39;;;;;;;3.30;1.45;;;;;;;7.18;40.94;102144.78;7908049;28;20411;-64
2021/04/04 10:13:31;;;;;;;2.25;1.30;;;;;;;7.23;41.17;102137.66;7905458;28;20491;-64
2021/04/04 10:17:21;;;;;;;5.15;2.38;;;;;;;7.25;40.95;102128.03;7904580;28;20407;-64
2021/04/04 10:21:12;;;;;;;3.03;1.30;;;;;;;7.29;40.82;102128.78;7903218;28;20045;-65
2021/04/04 10:25:05;;;;;;;9.70;1.83;;;;;;;7.32;41.15;102126.06;7912686;28;20026;-64
2021/04/04 10:29:05;;;;;;;3.40;1.60;;;;;;;7.35;40.83;102124.19;7910391;28;20069;-64
2021/04/04 10:33:15;;;;;;;3.92;2.20;;;;;;;7.40;40.99;102119.69;7911302;28;20049;-64
2021/04/04 10:37:05;;;;;;;4.43;1.48;;;;;;;7.44;40.74;102120.44;7909172;28;20041;-64
2021/04/04 10:40:58;;;;;;;7.95;1.55;;;;;;;7.47;41.10;102115.94;7905063;28;20042;-64
2021/04/04 10:44:49;;;;;;;8.48;1.95;;;;;;;7.49;40.92;102105.44;7915732;28;20403;-65
2021/04/04 10:48:43;;;;;;;5.68;1.48;;;;;;;7.52;40.71;102109.72;7909481;28;20041;-64
2021/04/04 10:52:34;;;;;;;8.63;1.70;;;;;;;7.54;40.71;102108.78;7908493;28;20061;-64
2021/04/04 10:56:25;;;;;;;3.85;1.50;;;;;;;7.59;40.93;102096.38;7911910;28;20044;-64
2021/04/04 11:00:16;;;;;;;5.55;1.63;;;;;;;7.65;40.85;102090.09;7907498;28;20073;-64
2021/04/04 11:04:08;;;;;;;5.85;2.08;;;;;;;7.67;40.85;102077.81;7917884;28;20046;-64
2021/04/04 11:07:59;;;;;;;7.38;2.25;;;;;;;7.79;41.00;102088.72;7914772;28;20770;-65
2021/04/04 11:11:55;;;;;;;5.75;1.55;;;;;;;7.86;40.68;102081.47;7910953;28;20034;-64
2021/04/04 11:16:10;;;;;;;6.68;1.38;;;;;;;7.92;40.64;102065.56;7918381;28;20045;-64
2021/04/04 11:20:05;;;;;;;6.93;1.83;;;;;;;8.00;40.65;102062.69;7903635;28;20046;-64
2021/04/04 11:23:56;;;;;;;7.32;1.60;;;;;;;8.03;40.53;102044.25;7909746;28;20073;-64
2021/04/04 11:27:50;;;;;;;6.05;2.05;;;;;;;8.14;40.58;102055.19;7913251;28;20868;-64
2021/04/04 11:31:44;;;;;;;5.80;1.45;;;;;;;8.12;40.35;102039.56;7909525;28;20128;-64
2021/04/04 11:35:57;;;;;;;5.85;2.00;;;;;;;8.22;40.35;102040.91;7910990;28;20844;-64
2021/04/04 11:40:13;;;;;;;4.63;2.30;;;;;;;8.28;40.35;102035.47;7913742;28;20034;-63
2021/04/04 11:44:32;;;;;;;4.40;1.67;;;;;;;8.35;40.54;102030.81;7909716;28;20490;-64
2021/04/04 11:48:34;;;;;;;5.95;1.80;;;;;;;8.40;40.26;102028.88;7907689;28;20058;-64
2021/04/04 11:52:24;;;;;;;6.20;1.70;;;;;;;8.45;40.47;102020.84;7914571;28;20514;-64
2021/04/04 11:56:47;;;;;;;10.00;2.03;;;;;;;8.45;40.14;102007.75;7907101;28;20053;-64
2021/04/04 12:00:37;;;;;;;5.22;1.63;;;;;;;8.56;40.32;102019.53;7914298;28;20670;-64
2021/04/04 12:04:31;;;;;;;8.20;2.13;;;;;;;8.53;40.38;102019.66;7915540;28;20049;-64
2021/04/04 12:08:29;;;;;;;3.05;1.88;;;;;;;8.59;40.09;102015.91;7910562;28;20035;-64
2021/04/04 12:12:20;;;;;;;5.53;2.10;;;;;;;8.61;40.25;102022.81;7909830;28;20068;-64
2021/04/04 12:16:10;;;;;;;5.97;1.90;;;;;;;8.65;40.43;102007.81;7907718;28;20046;-64
2021/04/04 12:20:03;;;;;;;6.40;1.90;;;;;;;8.65;40.38;102000.81;7906994;28;20490;-64
2021/04/04 12:23:53;;;;;;;4.32;1.88;;;;;;;8.75;40.24;101989.03;7913324;28;20048;-64
2021/04/04 12:27:46;;;;;;;7.63;1.73;;;;;;;8.84;40.34;101985.19;7909812;28;20073;-64
2021/04/04 12:31:41;;;;;;;7.07;2.95;;;;;;;8.92;39.99;101980.50;7909331;28;20085;-64
2021/04/04 12:35:34;;;;;;;3.10;1.80;;;;;;;9.00;40.03;101961.81;7911269;28;20034;-64
2021/04/04 12:39:26;;;;;;;4.53;1.77;;;;;;;9.05;40.26;101965.09;7915955;28;20508;-64
2021/04/04 12:43:16;;;;;;;2.92;1.83;;;;;;;9.04;40.02;101950.31;7910747;28;20022;-64
2021/04/04 12:47:20;;;;;;;7.25;2.08;;;;;;;9.15;39.95;101955.94;7921774;28;20050;-64
2021/04/04 12:51:13;;;;;;;5.22;2.03;;;;;;;9.16;39.98;101950.63;7913653;28;20041;-64
2021/04/04 12:55:17;;;;;;;3.90;2.03;;;;;;;9.22;40.04;101945.13;7910214;28;20034;-64
2021/04/04 12:59:14;;;;;;;9.35;2.65;;;;;;;9.24;39.91;101942.44;7909715;28;20105;-64
2021/04/04 13:03:17;;;;;;;6.03;2.50;;;;;;;9.25;39.73;101933.63;7912086;28;20065;-64
2021/04/04 13:07:09;;;;;;;8.73;2.80;;;;;;;9.32;39.70;101935.09;7910180;28;20042;-63
2021/04/04 13:11:03;;;;;;;10.23;2.20;;;;;;;9.37;39.71;101924.44;7908994;28;20042;-64
2021/04/04 13:14:54;;;;;;;6.80;2.03;;;;;;;9.40;39.97;101919.03;7910087;28;20599;-64
2021/04/04 13:18:48;;;;;;;5.70;1.95;;;;;;;9.43;39.98;101914.50;7908856;28;20455;-64
2021/04/04 13:22:39;;;;;;;7.65;2.25;;;;;;;9.43;39.74;101901.41;7915606;28;20480;-64
2021/04/04 13:26:33;;;;;;;6.35;2.17;;;;;;;9.52;39.77;101910.63;7905542;28;20026;-64
2021/04/04 13:30:26;;;;;;;8.52;3.08;;;;;;;9.57;39.93;101896.38;7916521;28;20402;-64
2021/04/04 13:34:22;;;;;;;3.70;1.98;;;;;;;9.63;39.78;101892.63;7909559;28;20030;-64
2021/04/04 13:38:22;;;;;;;4.13;2.22;;;;;;;9.66;39.37;101893.31;7909983;28;20045;-64
2021/04/04 13:42:14;;;;;;;3.25;1.95;;;;;;;9.70;39.56;101884.38;7911585;28;20054;-65
2021/04/04 13:46:05;;;;;;;8.15;2.25;;;;;;;9.74;39.39;101880.69;7907094;28;20074;-64
2021/04/04 13:49:55;;;;;;;7.78;2.25;;;;;;;9.79;39.66;101873.47;7903957;28;20447;-64
2021/04/04 13:53:46;;;;;;;8.32;2.25;;;;;;;9.78;39.36;101868.31;7912547;28;20060;-64
2021/04/04 13:57:39;;;;;;;4.82;2.30;;;;;;;9.84;39.35;101860.13;7912382;28;20038;-64
2021/04/04 14:01:31;;;;;;;8.63;2.67;;;;;;;9.86;39.46;101847.81;7905603;28;20077;-64
2021/04/04 14:05:29;;;;;;;10.63;2.97;;;;;;;9.87;39.13;101836.34;7916226;28;20073;-64
2021/04/04 14:09:20;;;;;;;;;;;;;;;9.81;39.48;101838.44;7919740;28;20048;-64
2021/04/04 14:13:11;;;;;;;8.82;3.67;;;;;;;9.89;39.18;101829.28;7917117;28;19922;-64
2021/04/04 14:17:04;;;;;;;8.77;2.47;;;;;;;9.90;39.23;101830.97;7916660;28;20081;-64
2021/04/04 14:20:55;;;;;;;7.72;2.92;;;;;;;9.93;39.30;101820.31;7911873;28;20442;-63
2021/04/04 14:24:46;;;;;;;4.28;2.15;;;;;;;9.95;39.20;101802.72;7914460;28;20632;-64
2021/04/04 14:28:37;;;;;;;4.95;2.13;;;;;;;9.92;39.22;101795.00;7913118;28;20043;-64
2021/04/04 14:32:27;;;;;;;6.28;2.45;;;;;;;9.94;39.14;101792.31;7916300;28;21809;-64
2021/04/04 14:36:18;;;;;;;4.50;2.08;;;;;;;9.97;38.99;101771.16;7913078;28;20034;-64
2021/04/04 14:40:09;;;;;;;8.73;2.78;;;;;;;10.03;39.13;101776.94;7913920;28;20046;-64
2021/04/04 14:44:26;;;;;;;7.25;2.42;;;;;;;10.05;38.93;101777.72;7908026;28;20721;-64
2021/04/04 14:48:17;;;;;;;5.25;1.90;;;;;;;10.05;39.00;101759.34;7909082;28;20061;-64
2021/04/04 14:52:07;;;;;;;10.52;2.25;;;;;;;10.09;39.16;101754.78;7919055;28;20045;-64
2021/04/04 14:56:00;;;;;;;9.43;2.80;;;;;;;10.15;38.78;101744.00;7911808;28;20041;-64
2021/04/04 14:59:50;;;;;;;5.85;2.72;;;;;;;10.18;38.65;101741.22;7913325;28;20097;-64
2021/04/04 15:03:41;;;;;;;3.25;1.80;;;;;;;10.20;39.00;101734.94;7912853;28;20050;-64
2021/04/04 15:07:32;;;;;;;8.07;2.92;;;;;;;10.22;38.89;101724.38;7911058;28;20304;-64
2021/04/04 15:11:22;;;;;;;5.60;2.38;;;;;;;10.24;39.02;101722.50;7916667;28;20159;-64
2021/04/04 15:15:13;;;;;;;6.05;2.10;;;;;;;10.22;38.84;101719.97;7911102;28;20040;-63
2021/04/04 15:19:04;;;;;;;9.35;2.80;;;;;;;10.18;39.03;101714.94;7912637;28;20038;-63
2021/04/04 15:22:54;;;;;;;4.03;2.38;;;;;;;10.11;39.04;101701.31;7919135;28;20048;-63
2021/04/04 15:26:45;;;;;;;9.40;3.53;;;;;;;10.09;38.99;101690.00;7921986;28;20056;-64
2021/04/04 15:30:48;;;;;;;8.38;2.42;;;;;;;10.05;39.09;101688.47;7914974;28;20046;-64
2021/04/04 15:34:39;;;;;;;5.18;2.63;;;;;;;10.07;38.88;101683.16;7914505;28;20064;-64
2021/04/04 15:38:30;;;;;;;11.75;2.90;;;;;;;10.10;39.09;101673.34;7913995;28;20454;-63
2021/04/04 15:42:20;;;;;;;8.52;2.35;;;;;;;10.11;39.01;101667.16;7909287;28;20038;-64
2021/04/04 15:46:11;;;;;;;7.68;2.80;;;;;;;10.10;39.05;101673.34;7913166;28;21108;-63
2021/04/04 15:50:03;;;;;;;7.75;2.55;;;;;;;10.04;39.03;101662.28;7912561;28;20157;-63
2021/04/04 15:53:53;;;;;;;7.25;3.25;;;;;;;10.02;38.81;101659.75;7913904;28;20104;-63
2021/04/04 15:57:44;;;;;;;4.80;2.50;;;;;;;9.97;38.83;101653.88;7911354;28;20042;-66
2021/04/04 16:01:35;;;;;;;6.53;2.42;;;;;;;9.89;38.98;101650.81;7910114;28;20418;-66
2021/04/04 16:05:26;;;;;;;5.55;2.63;;;;;;;9.76;38.75;101640.09;7912729;28;20181;-63
2021/04/04 16:09:17;;;;;;;10.50;2.55;;;;;;;9.76;38.98;101647.94;7912935;28;20042;-64
2021/04/04 16:13:08;;;;;;;4.70;2.55;;;;;;;9.69;38.85;101635.22;7918695;28;20026;-63
2021/04/04 16:16:58;;;;;;;8.25;3.03;;;;;;;9.65;38.90;101649.44;7909285;28;20064;-63
2021/04/04 16:20:49;;;;;;;4.22;2.40;;;;;;;9.64;38.76;101635.44;7909455;28;20050;-63
2021/04/04 16:24:40;;;;;;;5.35;2.60;;;;;;;9.62;38.61;101618.06;7910232;28;20046;-64
2021/04/04 16:28:31;;;;;;;5.53;2.15;;;;;;;9.57;38.85;101609.59;7908290;28;20045;-63
2021/04/04 16:32:21;;;;;;;7.63;2.40;;;;;;;9.53;38.55;101615.94;7912823;28;20049;-63
2021/04/04 16:36:12;;;;;;;11.35;3.10;;;;;;;9.47;38.64;101624.94;7912036;28;20113;-63
2021/04/04 16:40:04;;;;;;;5.55;3.28;;;;;;;9.44;38.77;101619.00;7910929;28;20034;-63
2021/04/04 16:43:55;;;;;;;6.25;2.90;;;;;;;9.38;39.29;101601.78;7910944;28;20046;-66
2021/04/04 16:47:46;;;;;;;4.65;2.90;;;;;;;9.32;38.58;101597.69;7907124;28;20038;-66
2021/04/04 16:51:37;;;;;;;5.03;3.03;;;;;;;9.27;38.74;101593.59;7913521;28;20092;-66
2021/04/04 16:55:27;;;;;;;8.13;3.88;;;;;;;9.21;38.59;101593.88;7923764;28;20033;-66
2021/04/04 16:59:19;;;;;;;8.57;3.40;;;;;;;9.15;38.66;101586.31;7912116;28;20050;-66
2021/04/04 17:03:09;;;;;;;7.25;3.28;;;;;;;9.10;38.63;101583.91;7909112;28;20249;-65
2021/04/04 17:07:00;;;;;;;7.28;3.33;;;;;;;9.08;38.49;101574.44;7909758;28;20056;-66
2021/04/04 17:10:51;;;;;;;5.35;2.95;;;;;;;9.03;38.57;101565.94;7914339;28;20080;-66
2021/04/04 17:14:41;;;;;;;11.07;3.63;;;;;;;9.00;39.24;101560.84;7912617;28;21608;-63
2021/04/04 17:18:32;;;;;;;5.10;3.03;;;;;;;8.98;39.11;101557.47;7905225;28;20763;-64
2021/04/04 17:22:23;;;;;;;9.98;3.78;;;;;;;8.94;38.83;101548.91;7911500;28;20046;-63
2021/04/04 17:26:13;;;;;;;7.13;4.32;;;;;;;8.91;38.95;101550.81;7909452;28;20030;-66
2021/04/04 17:30:20;;;;;;;6.85;3.88;;;;;;;8.84;38.86;101531.91;7913434;28;20031;-63
2021/04/04 17:34:12;;;;;;;6.85;3.70;;;;;;;8.80;38.93;101532.97;7913264;28;20570;-63
2021/04/04 17:38:03;;;;;;;7.20;3.28;;;;;;;8.78;38.95;101519.13;7912926;28;20045;-64
2021/04/04 17:41:54;;;;;;;9.43;3.70;;;;;;;8.68;39.09;101503.00;7922037;28;20050;-63
2021/04/04 17:45:44;;;;;;;11.63;4.25;;;;;;;8.71;38.92;101494.13;7920675;28;20041;-63
2021/04/04 17:49:35;;;;;;;10.45;4.75;;;;;;;8.66;39.15;101491.75;7922762;28;20053;-63
2021/04/04 17:53:26;;;;;;;10.70;4.57;;;;;;;8.62;39.00;101487.59;7917781;28;20567;-64
2021/04/04 17:57:17;;;;;;;9.88;5.18;;;;;;;8.53;39.01;101477.56;7918850;28;20533;-64
2021/04/04 18:01:07;;;;;;;10.35;4.78;;;;;;;8.51;39.37;101505.56;7924002;28;20058;-65
2021/04/04 18:05:06;;;;;;;7.72;4.32;;;;;;;8.45;39.24;101494.53;7920228;28;20049;-65
2021/04/04 18:12:47;;;;;;;8.07;4.15;;;;;;;8.28;39.16;101483.09;7916067;28;19984;-64
2021/04/04 18:16:38;;;;;;;7.07;4.15;;;;;;;8.23;39.38;101482.47;7916300;28;20054;-64
2021/04/04 18:20:28;;;;;;;12.85;5.05;;;;;;;8.18;39.17;101475.72;7926172;28;20088;-64
2021/04/04 18:24:19;;;;;;;10.48;5.50;;;;;;;8.12;39.16;101478.66;7920703;28;20038;-65
2021/04/04 18:28:11;;;;;;;8.45;5.22;;;;;;;8.06;39.50;101478.88;7920502;28;20421;-65